createdAt,value
2022-10-09T00:00:15.374Z,101255.16
2022-10-09T00:03:19.516Z,101258.88
2022-10-09T00:06:25.233Z,101258.88
2022-10-09T00:09:28.476Z,101253.50
2022-10-09T00:12:32.623Z,101251.63
2022-10-09T00:15:39.035Z,101261.59
2022-10-09T00:18:43.139Z,101258.88
2022-10-09T00:21:46.215Z,101257.03
2022-10-09T00:24:49.305Z,101256.19
2022-10-09T00:27:53.533Z,101257.09
2022-10-09T00:30:56.781Z,101259.84
2022-10-09T00:33:59.520Z,101254.56
2022-10-09T00:37:03.319Z,101251.00
2022-10-09T00:40:07.251Z,101257.44
2022-10-09T00:43:17.408Z,101225.59
2022-10-09T00:46:29.522Z,101261.09
2022-10-09T00:49:35.581Z,101251.13
2022-10-09T00:52:38.606Z,101250.25
2022-10-09T00:55:42.174Z,101252.88
2022-10-09T00:58:51.161Z,101249.31
2022-10-09T01:01:54.281Z,101241.28
2022-10-09T01:04:57.560Z,101245.81
2022-10-09T01:08:07.281Z,101245.13
2022-10-09T01:11:19.267Z,101246.00
2022-10-09T01:14:28.800Z,101235.19
2022-10-09T01:17:38.028Z,101242.25
2022-10-09T01:20:50.253Z,101226.09
2022-10-09T01:24:10.096Z,101223.50
2022-10-09T01:27:20.281Z,101218.97
2022-10-09T01:30:23.550Z,101225.25
2022-10-09T01:33:27.828Z,101214.47
2022-10-09T01:36:32.101Z,101216.31
2022-10-09T01:39:37.184Z,101221.81
2022-10-09T01:42:41.722Z,101220.06
2022-10-09T01:45:46.494Z,101221.00
2022-10-09T01:48:56.946Z,101214.72
2022-10-09T01:52:06.444Z,101214.69
2022-10-09T01:55:20.753Z,101210.09
2022-10-09T01:58:29.813Z,101205.72
2022-10-09T02:01:36.876Z,101203.91
2022-10-09T02:04:43.184Z,101204.09
2022-10-09T02:07:46.853Z,101196.00
2022-10-09T02:10:54.286Z,101202.31
2022-10-09T02:13:59.550Z,101196.13
2022-10-09T02:17:07.182Z,101192.56
2022-10-09T02:20:15.812Z,101191.75
2022-10-09T02:23:20.808Z,101195.28
2022-10-09T02:26:24.574Z,101195.28
2022-10-09T02:29:28.839Z,101190.97
2022-10-09T02:32:32.074Z,101193.59
2022-10-09T02:35:34.960Z,101194.53
2022-10-09T02:38:38.040Z,101187.38
2022-10-09T02:41:40.766Z,101196.50
2022-10-09T02:44:45.359Z,101186.84
2022-10-09T02:47:48.482Z,101189.63
2022-10-09T02:50:51.163Z,101186.97
2022-10-09T02:53:54.699Z,101196.22
2022-10-09T02:56:57.510Z,101192.53
2022-10-09T03:00:01.999Z,101194.19
2022-10-09T03:03:04.897Z,101196.94
2022-10-09T03:06:11.563Z,101198.59
2022-10-09T03:09:14.970Z,101203.69
2022-10-09T03:12:21.978Z,101201.03
2022-10-09T03:15:26.678Z,101208.22
2022-10-09T03:18:30.323Z,101205.38
2022-10-09T03:21:33.432Z,101198.34
2022-10-09T03:24:36.769Z,101209.19
2022-10-09T03:27:39.466Z,101201.94
2022-10-09T03:30:43.902Z,101208.25
2022-10-09T03:33:46.831Z,101200.16
2022-10-09T03:36:50.350Z,101201.94
2022-10-09T03:39:53.541Z,101200.13
2022-10-09T03:42:56.267Z,101201.91
2022-10-09T03:46:01.204Z,101209.28
2022-10-09T03:49:04.460Z,101210.38
2022-10-09T03:52:07.154Z,101210.34
2022-10-09T03:55:10.311Z,101211.16
2022-10-09T03:58:13.020Z,101219.19
2022-10-09T04:01:17.636Z,101213.84
2022-10-09T04:04:20.864Z,101211.25
2022-10-09T04:07:24.045Z,101216.75
2022-10-09T04:10:27.373Z,101221.00
2022-10-09T04:13:30.899Z,101215.63
2022-10-09T04:16:38.521Z,101219.56
2022-10-09T04:19:43.617Z,101236.56
2022-10-09T04:22:48.367Z,101209.22
2022-10-09T04:25:54.348Z,101231.66
2022-10-09T04:28:57.699Z,101227.94
2022-10-09T04:32:01.791Z,101233.41
2022-10-09T04:35:06.377Z,101228.13
2022-10-09T04:38:10.549Z,101218.09
2022-10-09T04:41:14.846Z,101222.53
2022-10-09T04:44:17.779Z,101212.81
2022-10-09T04:47:22.399Z,101215.72
2022-10-09T04:50:25.347Z,101213.00
2022-10-09T04:53:28.060Z,101221.22
2022-10-09T04:56:30.776Z,101217.56
2022-10-09T04:59:33.514Z,101213.13
2022-10-09T05:02:37.648Z,101207.09
2022-10-09T05:05:41.204Z,101206.09
2022-10-09T05:08:44.734Z,101208.91
2022-10-09T05:11:47.841Z,101218.94
2022-10-09T05:14:50.545Z,101217.16
2022-10-09T05:17:54.702Z,101221.81
2022-10-09T05:20:57.540Z,101214.50
2022-10-09T05:24:00.804Z,101219.00
2022-10-09T05:27:03.586Z,101218.84
2022-10-09T05:30:08.162Z,101222.31
2022-10-09T05:33:12.239Z,101219.72
2022-10-09T05:36:15.749Z,101219.72
2022-10-09T05:39:18.829Z,101216.97
2022-10-09T05:42:21.505Z,101221.50
2022-10-09T05:45:24.328Z,101211.75
2022-10-09T05:48:28.524Z,101217.91
2022-10-09T05:51:32.871Z,101223.09
2022-10-09T05:54:35.501Z,101216.06
2022-10-09T05:57:38.186Z,101224.22
2022-10-09T06:00:40.950Z,101223.91
2022-10-09T06:03:49.753Z,101229.28
2022-10-09T06:06:53.161Z,101207.91
2022-10-09T06:09:55.886Z,101232.78
2022-10-09T06:12:58.596Z,101228.28
2022-10-09T06:16:01.849Z,101229.44
2022-10-09T06:19:06.731Z,101236.78
2022-10-09T06:22:10.032Z,101230.31
2022-10-09T06:25:12.705Z,101233.59
2022-10-09T06:28:16.653Z,101228.03
2022-10-09T06:31:21.597Z,101228.03
2022-10-09T06:34:26.062Z,101231.75
2022-10-09T06:37:28.780Z,101230.94
2022-10-09T06:40:32.033Z,101237.28
2022-10-09T06:43:34.985Z,101244.47
2022-10-09T06:46:39.927Z,101242.63
2022-10-09T06:49:44.236Z,101241.84
2022-10-09T06:52:47.169Z,101246.38
2022-10-09T06:55:56.654Z,101247.28
2022-10-09T06:59:01.582Z,101243.28
2022-10-09T07:02:04.869Z,101246.97
2022-10-09T07:05:10.131Z,101246.13
2022-10-09T07:08:13.205Z,101247.91
2022-10-09T07:11:18.860Z,101255.09
2022-10-09T07:14:21.533Z,101249.66
2022-10-09T07:17:24.306Z,101246.69
2022-10-09T07:20:28.391Z,101252.13
2022-10-09T07:23:32.599Z,101248.31
2022-10-09T07:26:37.062Z,101247.16
2022-10-09T07:29:40.584Z,101263.34
2022-10-09T07:32:43.752Z,101247.72
2022-10-09T07:35:55.891Z,101242.78
2022-10-09T07:39:00.008Z,101244.63
2022-10-09T07:42:03.386Z,101233.84
2022-10-09T07:45:07.218Z,101238.97
2022-10-09T07:48:10.382Z,101231.31
2022-10-09T07:51:17.745Z,101219.22
2022-10-09T07:54:20.532Z,101224.53
2022-10-09T07:57:23.321Z,101211.34
2022-10-09T08:00:26.723Z,101206.22
2022-10-09T08:03:29.472Z,101199.19
2022-10-09T08:06:34.148Z,101205.38
2022-10-09T08:09:37.188Z,101207.16
2022-10-09T08:12:40.451Z,101207.63
2022-10-09T08:15:43.531Z,101208.88
2022-10-09T08:18:47.102Z,101199.28
2022-10-09T08:21:51.184Z,101190.81
2022-10-09T08:24:53.941Z,101194.72
2022-10-09T08:27:57.250Z,101190.16
2022-10-09T08:31:01.628Z,101185.47
2022-10-09T08:34:05.297Z,101196.97
2022-10-09T08:37:09.571Z,101181.97
2022-10-09T08:40:18.674Z,101175.91
2022-10-09T08:43:29.338Z,101184.47
2022-10-09T08:46:43.524Z,101175.50
2022-10-09T08:49:54.647Z,101181.09
2022-10-09T08:53:04.129Z,101192.31
2022-10-09T08:56:13.048Z,101179.22
2022-10-09T08:59:16.400Z,101185.00
2022-10-09T09:02:33.721Z,101172.91
2022-10-09T09:05:47.475Z,101172.78
2022-10-09T09:08:56.628Z,101175.19
2022-10-09T09:12:05.011Z,101171.00
2022-10-09T09:15:26.070Z,101163.34
2022-10-09T09:18:42.677Z,101157.75
2022-10-09T09:21:49.472Z,101159.81
2022-10-09T09:24:55.697Z,101151.03
2022-10-09T09:28:03.288Z,101157.47
2022-10-09T09:31:10.133Z,101154.16
2022-10-09T09:34:21.090Z,101145.47
2022-10-09T09:37:24.640Z,101148.31
2022-10-09T09:40:38.055Z,101142.75
2022-10-09T09:43:42.932Z,101133.50
2022-10-09T09:46:48.053Z,101122.88
2022-10-09T09:49:55.713Z,101124.56
2022-10-09T09:53:02.567Z,101104.97
2022-10-09T09:56:07.541Z,101110.03
2022-10-09T09:59:27.767Z,101106.19
2022-10-09T10:02:30.997Z,101096.84
2022-10-09T10:05:37.704Z,101096.34
2022-10-09T10:08:40.500Z,101086.56
2022-10-09T10:11:49.181Z,101072.31
2022-10-09T10:14:52.210Z,101072.56
2022-10-09T10:18:00.020Z,101069.50
2022-10-09T10:21:05.638Z,101051.75
2022-10-09T10:24:14.639Z,101043.84
2022-10-09T10:27:26.331Z,101049.31
2022-10-09T10:30:29.604Z,101032.84
2022-10-09T10:33:35.067Z,101024.59
2022-10-09T10:36:37.763Z,101021.94
2022-10-09T10:39:45.100Z,101021.28
2022-10-09T10:43:00.303Z,101005.63
2022-10-09T10:46:12.540Z,101004.22
2022-10-09T10:49:20.010Z,100998.13
2022-10-09T10:52:41.400Z,101004.38
2022-10-09T10:55:53.018Z,100985.00
2022-10-09T10:59:17.575Z,100979.44
2022-10-09T11:03:02.756Z,100973.56
2022-10-09T11:06:12.738Z,100966.59
2022-10-09T11:09:24.647Z,100970.53
2022-10-09T11:12:47.922Z,100950.06
2022-10-09T11:16:07.033Z,100949.63
2022-10-09T11:19:32.371Z,100940.09
2022-10-09T11:22:56.045Z,100927.81
2022-10-09T11:26:10.030Z,100926.88
2022-10-09T11:29:19.080Z,100914.06
2022-10-09T11:32:28.670Z,100915.44
2022-10-09T11:35:36.381Z,100896.13
2022-10-09T11:38:43.524Z,100897.81
2022-10-09T11:41:48.607Z,100891.16
2022-10-09T11:45:01.411Z,100882.44
2022-10-09T11:48:11.401Z,100872.63
2022-10-09T11:51:20.969Z,100867.75
2022-10-09T11:54:25.941Z,100868.84
2022-10-09T11:57:30.493Z,100857.53
2022-10-09T12:00:36.218Z,100849.81
2022-10-09T12:03:41.413Z,100852.31
2022-10-09T12:06:48.885Z,100839.97
2022-10-09T12:10:00.767Z,100829.69
2022-10-09T12:13:06.381Z,100818.25
2022-10-09T12:16:12.665Z,100827.13
2022-10-09T12:19:20.957Z,100824.41
2022-10-09T12:22:30.719Z,100818.50
2022-10-09T12:25:41.764Z,100797.88
2022-10-09T12:28:48.989Z,100793.03
2022-10-09T12:31:54.754Z,100791.72
2022-10-09T12:34:59.394Z,100778.59
2022-10-09T12:38:02.158Z,100778.22
2022-10-09T12:41:08.737Z,100775.31
2022-10-09T12:44:27.237Z,100766.66
2022-10-09T12:47:31.688Z,100763.44
2022-10-09T12:50:37.032Z,100762.13
2022-10-09T12:53:47.543Z,100758.22
2022-10-09T12:56:50.579Z,100742.72
2022-10-09T12:59:53.590Z,100742.63
2022-10-09T13:02:56.661Z,100727.91
2022-10-09T13:06:02.279Z,100723.09
2022-10-09T13:09:08.344Z,100719.41
2022-10-09T13:12:17.933Z,100707.31
2022-10-09T13:15:35.766Z,100706.94
2022-10-09T13:18:39.258Z,100704.00
2022-10-09T13:21:43.302Z,100702.72
2022-10-09T13:24:46.519Z,100693.47
2022-10-09T13:27:49.742Z,100683.50
2022-10-09T13:30:52.994Z,100685.06
2022-10-09T13:33:55.826Z,100670.22
2022-10-09T13:37:00.305Z,100669.34
2022-10-09T13:40:03.655Z,100668.28
2022-10-09T13:43:07.458Z,100665.72
2022-10-09T13:46:10.345Z,100655.75
2022-10-09T13:49:13.112Z,100651.97
2022-10-09T13:52:17.427Z,100646.41
2022-10-09T13:55:20.332Z,100648.25
2022-10-09T13:58:23.110Z,100633.72
2022-10-09T14:01:26.086Z,100630.19
2022-10-09T14:04:30.534Z,100627.34
2022-10-09T14:07:34.789Z,100622.63
2022-10-09T14:10:43.030Z,100597.56
2022-10-09T14:13:45.690Z,100617.88
2022-10-09T14:16:48.401Z,100606.94
2022-10-09T14:19:51.194Z,100605.97
2022-10-09T14:22:56.130Z,100604.19
2022-10-09T14:26:03.996Z,100597.84
2022-10-09T14:29:07.177Z,100593.25
2022-10-09T14:32:09.951Z,100597.84
2022-10-09T14:35:13.715Z,100598.91
2022-10-09T14:38:19.328Z,100592.56
2022-10-09T14:41:23.180Z,100591.72
2022-10-09T14:44:26.048Z,100580.78
2022-10-09T14:47:29.468Z,100581.63
2022-10-09T14:50:32.258Z,100583.50
2022-10-09T14:53:36.461Z,100557.53
2022-10-09T14:56:39.410Z,100561.25
2022-10-09T14:59:42.343Z,100568.97
2022-10-09T15:02:45.985Z,100566.22
2022-10-09T15:05:49.195Z,100564.38
2022-10-09T15:09:03.126Z,100562.63
2022-10-09T15:12:08.749Z,100555.38
2022-10-09T15:15:12.039Z,100546.41
2022-10-09T15:18:15.453Z,100550.09
2022-10-09T15:21:21.567Z,100557.53
2022-10-09T15:24:25.781Z,100556.56
2022-10-09T15:27:28.898Z,100545.84
2022-10-09T15:30:31.719Z,100541.44
2022-10-09T15:33:34.957Z,100518.50
2022-10-09T15:36:39.921Z,100536.47
2022-10-09T15:39:44.272Z,100539.41
2022-10-09T15:42:47.524Z,100531.78
2022-10-09T15:45:51.482Z,100523.91
2022-10-09T15:48:54.939Z,100530.06
2022-10-09T15:51:58.008Z,100535.75
2022-10-09T15:55:02.219Z,100533.75
2022-10-09T15:58:07.790Z,100529.06
2022-10-09T16:01:13.670Z,100520.59
2022-10-09T16:04:16.678Z,100530.78
2022-10-09T16:07:19.580Z,100524.94
2022-10-09T16:10:23.783Z,100519.47
2022-10-09T16:13:27.936Z,100520.81
2022-10-09T16:16:30.799Z,100522.72
2022-10-09T16:19:33.654Z,100525.09
2022-10-09T16:22:36.768Z,100515.00
2022-10-09T16:25:42.440Z,100517.00
2022-10-09T16:28:46.228Z,100516.97
2022-10-09T16:31:49.171Z,100513.44
2022-10-09T16:34:52.540Z,100518.03
2022-10-09T16:37:55.460Z,100520.59
2022-10-09T16:41:02.344Z,100524.16
2022-10-09T16:44:06.946Z,100523.19
2022-10-09T16:47:09.839Z,100530.66
2022-10-09T16:50:13.190Z,100533.44
2022-10-09T16:53:15.940Z,100539.88
2022-10-09T16:56:24.682Z,100533.41
2022-10-09T16:59:27.430Z,100538.78
2022-10-09T17:02:30.151Z,100542.31
2022-10-09T17:05:33.266Z,100543.88
2022-10-09T17:08:36.545Z,100546.44
2022-10-09T17:11:40.680Z,100548.81
2022-10-09T17:14:43.442Z,100544.41
2022-10-09T17:17:47.149Z,100547.47
2022-10-09T17:20:50.003Z,100555.50
2022-10-09T17:23:54.752Z,100554.13
2022-10-09T17:26:58.994Z,100557.28
2022-10-09T17:30:01.824Z,100563.06
2022-10-09T17:33:04.692Z,100573.59
2022-10-09T17:36:08.529Z,100565.03
2022-10-09T17:39:14.540Z,100569.06
2022-10-09T17:42:19.356Z,100563.00
2022-10-09T17:45:22.242Z,100560.66
2022-10-09T17:48:25.575Z,100558.44
2022-10-09T17:51:30.801Z,100568.53
2022-10-09T17:54:34.046Z,100569.50
2022-10-09T17:57:38.306Z,100561.91
2022-10-09T18:00:41.716Z,100566.53
2022-10-09T18:03:45.169Z,100564.09
2022-10-09T18:06:49.252Z,100560.69
2022-10-09T18:09:52.295Z,100556.72
2022-10-09T18:12:56.977Z,100560.31
2022-10-09T18:15:59.782Z,100560.78
2022-10-09T18:19:03.087Z,100565.53
2022-10-09T18:22:05.885Z,100567.56
2022-10-09T18:25:09.095Z,100563.31
2022-10-09T18:28:13.717Z,100566.28
2022-10-09T18:31:18.744Z,100558.38
2022-10-09T18:34:21.561Z,100561.25
2022-10-09T18:37:24.517Z,100564.78
2022-10-09T18:40:27.864Z,100559.75
2022-10-09T18:43:32.005Z,100565.38
2022-10-09T18:46:40.323Z,100559.13
2022-10-09T18:49:46.384Z,100567.31
2022-10-09T18:52:49.490Z,100558.50
2022-10-09T18:55:52.545Z,100554.84
2022-10-09T18:58:57.233Z,100559.75
2022-10-09T19:02:00.003Z,100547.38
2022-10-09T19:05:03.174Z,100549.03
2022-10-09T19:08:06.108Z,100538.41
2022-10-09T19:11:09.519Z,100540.41
2022-10-09T19:14:15.706Z,100542.31
2022-10-09T19:17:18.986Z,100534.06
2022-10-09T19:20:21.954Z,100538.84
2022-10-09T19:23:24.783Z,100528.06
2022-10-09T19:26:29.457Z,100528.84
2022-10-09T19:29:33.627Z,100527.00
2022-10-09T19:32:36.874Z,100520.72
2022-10-09T19:35:47.352Z,100499.00
2022-10-09T19:38:50.812Z,100509.44
2022-10-09T19:41:53.634Z,100500.59
2022-10-09T19:44:58.076Z,100514.19
2022-10-09T19:48:01.584Z,100503.56
2022-10-09T19:51:07.497Z,100484.69
2022-10-09T19:54:11.012Z,100507.09
2022-10-09T19:57:13.931Z,100506.34
2022-10-09T20:00:18.306Z,100513.16
2022-10-09T20:03:21.496Z,100516.25
2022-10-09T20:06:24.516Z,100513.75
2022-10-09T20:09:27.284Z,100519.56
2022-10-09T20:12:30.262Z,100511.63
2022-10-09T20:15:34.694Z,100528.09
2022-10-09T20:18:39.398Z,100525.66
2022-10-09T20:21:42.546Z,100530.38
2022-10-09T20:24:45.297Z,100536.81
2022-10-09T20:27:48.316Z,100523.66
2022-10-09T20:30:58.270Z,100534.59
2022-10-09T20:34:01.436Z,100534.72
2022-10-09T20:37:04.406Z,100531.31
2022-10-09T20:40:08.259Z,100533.25
2022-10-09T20:43:12.041Z,100538.66
2022-10-09T20:46:16.494Z,100528.97
2022-10-09T20:49:19.263Z,100520.91
2022-10-09T20:52:22.326Z,100516.66
2022-10-09T20:55:25.011Z,100508.66
2022-10-09T20:58:28.365Z,100518.69
2022-10-09T21:01:32.980Z,100507.13
2022-10-09T21:04:35.692Z,100517.19
2022-10-09T21:07:38.435Z,100520.00
2022-10-09T21:10:45.525Z,100517.41
2022-10-09T21:13:50.075Z,100516.66
2022-10-09T21:16:54.144Z,100518.59
2022-10-09T21:19:58.243Z,100522.16
2022-10-09T21:23:01.396Z,100523.06
2022-10-09T21:26:04.732Z,100525.03
2022-10-09T21:29:07.750Z,100523.34
2022-10-09T21:32:12.137Z,100524.38
2022-10-09T21:35:14.852Z,100535.97
2022-10-09T21:38:19.758Z,100510.34
2022-10-09T21:41:22.551Z,100524.56
2022-10-09T21:44:25.546Z,100526.38
2022-10-09T21:47:29.660Z,100522.00
2022-10-09T21:50:33.186Z,100528.81
2022-10-09T21:53:36.439Z,100524.69
2022-10-09T21:56:39.160Z,100520.22
2022-10-09T21:59:42.125Z,100517.75
2022-10-09T22:02:46.213Z,100508.69
2022-10-09T22:05:48.895Z,100508.69
2022-10-09T22:08:51.562Z,100498.88
2022-10-09T22:11:54.598Z,100498.84
2022-10-09T22:14:57.927Z,100495.03
2022-10-09T22:18:02.312Z,100501.53
2022-10-09T22:21:07.253Z,100491.44
2022-10-09T22:24:10.008Z,100487.06
2022-10-09T22:27:12.752Z,100489.84
2022-10-09T22:30:15.933Z,100487.19
2022-10-09T22:33:20.288Z,100490.81
2022-10-09T22:36:25.319Z,100486.34
2022-10-09T22:39:28.355Z,100481.94
2022-10-09T22:42:31.298Z,100490.91
2022-10-09T22:45:38.318Z,100478.47
2022-10-09T22:48:45.014Z,100478.81
2022-10-09T22:51:47.892Z,100486.06
2022-10-09T22:54:50.634Z,100494.28
2022-10-09T22:57:53.367Z,100491.69
2022-10-09T23:00:56.525Z,100484.28
2022-10-09T23:04:02.352Z,100488.16
2022-10-09T23:07:05.448Z,100465.97
2022-10-09T23:10:08.524Z,100493.66
2022-10-09T23:13:11.514Z,100490.97
2022-10-09T23:16:16.009Z,100483.84
2022-10-09T23:19:20.702Z,100484.00
2022-10-09T23:22:23.434Z,100499.31
2022-10-09T23:25:26.673Z,100492.03
2022-10-09T23:28:29.421Z,100500.25
2022-10-09T23:31:32.757Z,100491.31
2022-10-09T23:34:37.282Z,100497.47
2022-10-09T23:37:40.014Z,100484.94
2022-10-09T23:40:42.952Z,100478.81
2022-10-09T23:43:47.620Z,100472.56
2022-10-09T23:46:50.855Z,100476.31
2022-10-09T23:49:54.966Z,100473.66
2022-10-09T23:52:57.993Z,100476.41
2022-10-09T23:56:00.696Z,100480.03
2022-10-09T23:59:06.373Z,100471.22
